sensor_id;sensor_type;location;lat;lon;timestamp;P1;durP1;ratioP1;P2;durP2;ratioP2
43150;SDS011;28755;51.478;5.702;2023-09-19T00:01:18;15.70;;;2.85;;
43150;SDS011;28755;51.478;5.702;2023-09-19T00:03:45;18.90;;;2.83;;
43150;SDS011;28755;51.478;5.702;2023-09-19T00:06:11;18.58;;;3.42;;
43150;SDS011;28755;51.478;5.702;2023-09-19T00:08:38;14.93;;;3.00;;
43150;SDS011;28755;51.478;5.702;2023-09-19T00:11:04;14.82;;;2.83;;
43150;SDS011;28755;51.478;5.702;2023-09-19T00:13:31;17.10;;;3.17;;
43150;SDS011;28755;51.478;5.702;2023-09-19T00:15:58;26.52;;;3.75;;
43150;SDS011;28755;51.478;5.702;2023-09-19T00:18:25;12.43;;;2.53;;
43150;SDS011;28755;51.478;5.702;2023-09-19T00:20:58;15.98;;;3.72;;
43150;SDS011;28755;51.478;5.702;2023-09-19T00:23:24;19.58;;;2.60;;
43150;SDS011;28755;51.478;5.702;2023-09-19T00:25:49;12.25;;;2.58;;
43150;SDS011;28755;51.478;5.702;2023-09-19T00:28:16;16.42;;;3.65;;
43150;SDS011;28755;51.478;5.702;2023-09-19T00:30:43;16.23;;;2.63;;
43150;SDS011;28755;51.478;5.702;2023-09-19T00:33:09;11.55;;;3.10;;
43150;SDS011;28755;51.478;5.702;2023-09-19T00:35:36;13.63;;;2.85;;
43150;SDS011;28755;51.478;5.702;2023-09-19T00:38:02;14.95;;;3.25;;
43150;SDS011;28755;51.478;5.702;2023-09-19T00:40:28;17.95;;;3.17;;
43150;SDS011;28755;51.478;5.702;2023-09-19T00:42:57;16.73;;;3.08;;
43150;SDS011;28755;51.478;5.702;2023-09-19T00:45:26;16.10;;;2.85;;
43150;SDS011;28755;51.478;5.702;2023-09-19T00:47:53;14.35;;;3.15;;
43150;SDS011;28755;51.478;5.702;2023-09-19T00:50:19;12.43;;;2.55;;
43150;SDS011;28755;51.478;5.702;2023-09-19T00:52:48;12.80;;;2.92;;
43150;SDS011;28755;51.478;5.702;2023-09-19T00:55:15;21.15;;;3.00;;
43150;SDS011;28755;51.478;5.702;2023-09-19T00:57:44;14.33;;;3.47;;
43150;SDS011;28755;51.478;5.702;2023-09-19T01:00:11;14.35;;;2.65;;
43150;SDS011;28755;51.478;5.702;2023-09-19T01:02:40;16.97;;;2.90;;
43150;SDS011;28755;51.478;5.702;2023-09-19T01:05:08;14.88;;;3.15;;
43150;SDS011;28755;51.478;5.702;2023-09-19T01:07:34;13.68;;;2.70;;
43150;SDS011;28755;51.478;5.702;2023-09-19T01:10:02;15.43;;;2.95;;
43150;SDS011;28755;51.478;5.702;2023-09-19T01:12:33;20.83;;;3.67;;
43150;SDS011;28755;51.478;5.702;2023-09-19T01:17:45;14.55;;;3.50;;
43150;SDS011;28755;51.478;5.702;2023-09-19T01:25:56;13.32;;;2.65;;
43150;SDS011;28755;51.478;5.702;2023-09-19T01:31:26;15.57;;;2.75;;
43150;SDS011;28755;51.478;5.702;2023-09-19T01:33:57;13.38;;;2.70;;
43150;SDS011;28755;51.478;5.702;2023-09-19T01:36:33;17.48;;;2.80;;
43150;SDS011;28755;51.478;5.702;2023-09-19T01:39:01;16.40;;;2.88;;
43150;SDS011;28755;51.478;5.702;2023-09-19T01:41:38;17.15;;;2.78;;
43150;SDS011;28755;51.478;5.702;2023-09-19T01:44:14;12.00;;;2.65;;
43150;SDS011;28755;51.478;5.702;2023-09-19T01:47:35;10.57;;;2.70;;
43150;SDS011;28755;51.478;5.702;2023-09-19T01:50:16;14.52;;;3.17;;
43150;SDS011;28755;51.478;5.702;2023-09-19T01:52:57;16.45;;;2.90;;
43150;SDS011;28755;51.478;5.702;2023-09-19T01:55:30;12.73;;;2.40;;
43150;SDS011;28755;51.478;5.702;2023-09-19T01:58:06;13.75;;;2.72;;
43150;SDS011;28755;51.478;5.702;2023-09-19T02:00:37;18.63;;;2.72;;
43150;SDS011;28755;51.478;5.702;2023-09-19T02:05:33;18.85;;;3.17;;
43150;SDS011;28755;51.478;5.702;2023-09-19T02:07:59;18.80;;;3.28;;
43150;SDS011;28755;51.478;5.702;2023-09-19T02:10:25;14.18;;;2.75;;
43150;SDS011;28755;51.478;5.702;2023-09-19T02:12:51;14.63;;;3.03;;
43150;SDS011;28755;51.478;5.702;2023-09-19T02:15:17;13.90;;;3.42;;
43150;SDS011;28755;51.478;5.702;2023-09-19T02:17:42;15.35;;;2.72;;
43150;SDS011;28755;51.478;5.702;2023-09-19T02:20:09;16.63;;;2.75;;
43150;SDS011;28755;51.478;5.702;2023-09-19T02:22:39;10.30;;;2.85;;
43150;SDS011;28755;51.478;5.702;2023-09-19T02:25:09;19.37;;;2.73;;
43150;SDS011;28755;51.478;5.702;2023-09-19T02:27:34;16.13;;;2.42;;
43150;SDS011;28755;51.478;5.702;2023-09-19T02:30:01;17.02;;;3.00;;
43150;SDS011;28755;51.478;5.702;2023-09-19T02:32:29;18.42;;;3.40;;
43150;SDS011;28755;51.478;5.702;2023-09-19T02:34:56;16.45;;;2.65;;
43150;SDS011;28755;51.478;5.702;2023-09-19T02:37:23;15.30;;;2.83;;
43150;SDS011;28755;51.478;5.702;2023-09-19T02:39:49;16.63;;;2.67;;
43150;SDS011;28755;51.478;5.702;2023-09-19T02:42:14;12.32;;;2.80;;
43150;SDS011;28755;51.478;5.702;2023-09-19T02:44:40;9.93;;;2.38;;
43150;SDS011;28755;51.478;5.702;2023-09-19T02:47:05;13.43;;;2.60;;
43150;SDS011;28755;51.478;5.702;2023-09-19T02:49:31;17.73;;;2.60;;
43150;SDS011;28755;51.478;5.702;2023-09-19T02:51:57;18.90;;;2.75;;
43150;SDS011;28755;51.478;5.702;2023-09-19T02:54:24;15.27;;;2.63;;
43150;SDS011;28755;51.478;5.702;2023-09-19T02:56:50;15.48;;;2.20;;
43150;SDS011;28755;51.478;5.702;2023-09-19T02:59:15;15.95;;;2.30;;
43150;SDS011;28755;51.478;5.702;2023-09-19T03:01:44;12.73;;;2.20;;
43150;SDS011;28755;51.478;5.702;2023-09-19T03:04:13;16.38;;;2.95;;
43150;SDS011;28755;51.478;5.702;2023-09-19T03:06:38;12.18;;;2.83;;
43150;SDS011;28755;51.478;5.702;2023-09-19T03:09:05;12.73;;;2.40;;
43150;SDS011;28755;51.478;5.702;2023-09-19T03:11:37;21.00;;;3.05;;
43150;SDS011;28755;51.478;5.702;2023-09-19T03:14:05;10.75;;;2.75;;
43150;SDS011;28755;51.478;5.702;2023-09-19T03:16:30;17.05;;;3.13;;
43150;SDS011;28755;51.478;5.702;2023-09-19T03:18:56;13.95;;;2.88;;
43150;SDS011;28755;51.478;5.702;2023-09-19T03:21:23;10.93;;;2.15;;
43150;SDS011;28755;51.478;5.702;2023-09-19T03:23:49;9.60;;;2.25;;
43150;SDS011;28755;51.478;5.702;2023-09-19T03:26:14;13.18;;;2.65;;
43150;SDS011;28755;51.478;5.702;2023-09-19T03:28:40;11.45;;;2.00;;
43150;SDS011;28755;51.478;5.702;2023-09-19T03:31:07;15.43;;;2.92;;
43150;SDS011;28755;51.478;5.702;2023-09-19T03:33:33;13.38;;;2.40;;
43150;SDS011;28755;51.478;5.702;2023-09-19T03:35:59;12.02;;;2.50;;
43150;SDS011;28755;51.478;5.702;2023-09-19T03:38:26;8.00;;;2.17;;
43150;SDS011;28755;51.478;5.702;2023-09-19T03:40:53;10.77;;;3.15;;
43150;SDS011;28755;51.478;5.702;2023-09-19T03:43:19;9.80;;;2.38;;
43150;SDS011;28755;51.478;5.702;2023-09-19T03:45:44;14.32;;;2.80;;
43150;SDS011;28755;51.478;5.702;2023-09-19T03:48:11;15.23;;;3.40;;
43150;SDS011;28755;51.478;5.702;2023-09-19T03:50:38;15.18;;;2.90;;
43150;SDS011;28755;51.478;5.702;2023-09-19T03:53:04;10.88;;;2.88;;
43150;SDS011;28755;51.478;5.702;2023-09-19T03:55:32;15.85;;;2.83;;
43150;SDS011;28755;51.478;5.702;2023-09-19T03:58:00;14.30;;;3.08;;
43150;SDS011;28755;51.478;5.702;2023-09-19T04:00:26;11.85;;;2.95;;
43150;SDS011;28755;51.478;5.702;2023-09-19T04:02:52;14.50;;;2.65;;
43150;SDS011;28755;51.478;5.702;2023-09-19T04:05:18;15.20;;;2.80;;
43150;SDS011;28755;51.478;5.702;2023-09-19T04:07:44;16.70;;;2.42;;
43150;SDS011;28755;51.478;5.702;2023-09-19T04:10:09;16.67;;;3.30;;
43150;SDS011;28755;51.478;5.702;2023-09-19T04:12:36;8.55;;;2.58;;
43150;SDS011;28755;51.478;5.702;2023-09-19T04:15:02;19.20;;;3.25;;
43150;SDS011;28755;51.478;5.702;2023-09-19T04:17:28;12.10;;;3.05;;
43150;SDS011;28755;51.478;5.702;2023-09-19T04:19:53;12.45;;;3.22;;
43150;SDS011;28755;51.478;5.702;2023-09-19T04:22:19;11.15;;;2.97;;
43150;SDS011;28755;51.478;5.702;2023-09-19T04:24:45;13.82;;;3.00;;
43150;SDS011;28755;51.478;5.702;2023-09-19T04:27:10;14.38;;;3.10;;
43150;SDS011;28755;51.478;5.702;2023-09-19T04:29:40;14.02;;;2.90;;
43150;SDS011;28755;51.478;5.702;2023-09-19T04:32:06;11.23;;;2.28;;
43150;SDS011;28755;51.478;5.702;2023-09-19T04:34:32;15.63;;;2.85;;
43150;SDS011;28755;51.478;5.702;2023-09-19T04:36:59;18.67;;;3.15;;
43150;SDS011;28755;51.478;5.702;2023-09-19T04:39:25;16.38;;;2.67;;
43150;SDS011;28755;51.478;5.702;2023-09-19T04:41:51;17.98;;;2.95;;
43150;SDS011;28755;51.478;5.702;2023-09-19T04:44:17;18.98;;;2.95;;
43150;SDS011;28755;51.478;5.702;2023-09-19T04:46:43;11.50;;;2.30;;
43150;SDS011;28755;51.478;5.702;2023-09-19T04:49:10;11.13;;;2.42;;
43150;SDS011;28755;51.478;5.702;2023-09-19T04:51:36;17.25;;;2.72;;
43150;SDS011;28755;51.478;5.702;2023-09-19T04:54:01;17.27;;;2.90;;
43150;SDS011;28755;51.478;5.702;2023-09-19T04:56:28;16.17;;;3.00;;
43150;SDS011;28755;51.478;5.702;2023-09-19T04:58:53;16.40;;;2.92;;
43150;SDS011;28755;51.478;5.702;2023-09-19T05:01:19;15.55;;;2.45;;
43150;SDS011;28755;51.478;5.702;2023-09-19T05:03:48;19.50;;;3.03;;
43150;SDS011;28755;51.478;5.702;2023-09-19T05:06:17;16.17;;;2.67;;
43150;SDS011;28755;51.478;5.702;2023-09-19T05:08:46;15.20;;;2.72;;
43150;SDS011;28755;51.478;5.702;2023-09-19T05:11:18;13.27;;;2.55;;
43150;SDS011;28755;51.478;5.702;2023-09-19T05:13:44;11.95;;;2.75;;
43150;SDS011;28755;51.478;5.702;2023-09-19T05:16:10;13.82;;;2.60;;
43150;SDS011;28755;51.478;5.702;2023-09-19T05:18:35;18.10;;;3.10;;
43150;SDS011;28755;51.478;5.702;2023-09-19T05:21:04;11.27;;;2.33;;
43150;SDS011;28755;51.478;5.702;2023-09-19T05:23:29;13.73;;;2.75;;
43150;SDS011;28755;51.478;5.702;2023-09-19T05:25:56;16.05;;;2.33;;
43150;SDS011;28755;51.478;5.702;2023-09-19T05:28:23;17.10;;;2.97;;
43150;SDS011;28755;51.478;5.702;2023-09-19T05:30:49;16.20;;;2.78;;
43150;SDS011;28755;51.478;5.702;2023-09-19T05:33:14;17.83;;;2.97;;
43150;SDS011;28755;51.478;5.702;2023-09-19T05:35:40;16.38;;;2.75;;
43150;SDS011;28755;51.478;5.702;2023-09-19T05:38:07;13.60;;;2.75;;
43150;SDS011;28755;51.478;5.702;2023-09-19T05:40:35;10.15;;;2.60;;
43150;SDS011;28755;51.478;5.702;2023-09-19T05:43:00;12.48;;;2.80;;
43150;SDS011;28755;51.478;5.702;2023-09-19T05:45:28;17.17;;;2.95;;
43150;SDS011;28755;51.478;5.702;2023-09-19T05:47:54;14.38;;;2.83;;
43150;SDS011;28755;51.478;5.702;2023-09-19T05:50:29;10.88;;;2.47;;
43150;SDS011;28755;51.478;5.702;2023-09-19T05:52:55;14.02;;;3.25;;
43150;SDS011;28755;51.478;5.702;2023-09-19T05:55:21;12.23;;;2.88;;
43150;SDS011;28755;51.478;5.702;2023-09-19T05:57:52;11.57;;;2.63;;
43150;SDS011;28755;51.478;5.702;2023-09-19T06:00:22;13.77;;;3.05;;
43150;SDS011;28755;51.478;5.702;2023-09-19T06:02:52;14.18;;;2.92;;
43150;SDS011;28755;51.478;5.702;2023-09-19T06:05:18;17.08;;;3.22;;
43150;SDS011;28755;51.478;5.702;2023-09-19T06:07:43;14.23;;;2.50;;
43150;SDS011;28755;51.478;5.702;2023-09-19T06:10:09;11.38;;;2.70;;
43150;SDS011;28755;51.478;5.702;2023-09-19T06:12:38;15.52;;;3.08;;
43150;SDS011;28755;51.478;5.702;2023-09-19T06:15:04;14.38;;;2.53;;
43150;SDS011;28755;51.478;5.702;2023-09-19T06:17:31;14.43;;;2.95;;
43150;SDS011;28755;51.478;5.702;2023-09-19T06:19:56;16.02;;;2.85;;
43150;SDS011;28755;51.478;5.702;2023-09-19T06:22:22;15.90;;;3.15;;
43150;SDS011;28755;51.478;5.702;2023-09-19T06:24:49;13.98;;;2.95;;
43150;SDS011;28755;51.478;5.702;2023-09-19T06:27:15;17.17;;;3.08;;
43150;SDS011;28755;51.478;5.702;2023-09-19T06:29:40;15.20;;;3.10;;
43150;SDS011;28755;51.478;5.702;2023-09-19T06:32:07;21.42;;;3.35;;
43150;SDS011;28755;51.478;5.702;2023-09-19T06:34:33;13.93;;;3.28;;
43150;SDS011;28755;51.478;5.702;2023-09-19T06:36:59;18.75;;;3.30;;
43150;SDS011;28755;51.478;5.702;2023-09-19T06:39:25;14.52;;;2.90;;
43150;SDS011;28755;51.478;5.702;2023-09-19T06:41:51;13.95;;;3.22;;
43150;SDS011;28755;51.478;5.702;2023-09-19T06:44:18;18.70;;;3.30;;
43150;SDS011;28755;51.478;5.702;2023-09-19T06:46:46;15.25;;;2.95;;
43150;SDS011;28755;51.478;5.702;2023-09-19T06:49:16;13.07;;;2.63;;
43150;SDS011;28755;51.478;5.702;2023-09-19T06:51:42;20.95;;;3.30;;
43150;SDS011;28755;51.478;5.702;2023-09-19T06:54:09;13.90;;;2.85;;
43150;SDS011;28755;51.478;5.702;2023-09-19T06:56:37;13.98;;;2.70;;
43150;SDS011;28755;51.478;5.702;2023-09-19T06:59:02;12.05;;;2.63;;
43150;SDS011;28755;51.478;5.702;2023-09-19T07:01:31;17.17;;;2.80;;
43150;SDS011;28755;51.478;5.702;2023-09-19T07:03:57;14.00;;;3.33;;
43150;SDS011;28755;51.478;5.702;2023-09-19T07:06:22;16.02;;;2.80;;
43150;SDS011;28755;51.478;5.702;2023-09-19T07:08:49;14.20;;;2.60;;
43150;SDS011;28755;51.478;5.702;2023-09-19T07:11:15;17.33;;;3.00;;
43150;SDS011;28755;51.478;5.702;2023-09-19T07:13:41;13.73;;;2.90;;
43150;SDS011;28755;51.478;5.702;2023-09-19T07:16:06;15.90;;;2.90;;
43150;SDS011;28755;51.478;5.702;2023-09-19T07:18:34;18.63;;;2.95;;
43150;SDS011;28755;51.478;5.702;2023-09-19T07:20:59;19.15;;;3.80;;
43150;SDS011;28755;51.478;5.702;2023-09-19T07:23:30;17.38;;;2.80;;
43150;SDS011;28755;51.478;5.702;2023-09-19T07:25:59;16.85;;;3.45;;
43150;SDS011;28755;51.478;5.702;2023-09-19T07:28:30;15.98;;;3.40;;
43150;SDS011;28755;51.478;5.702;2023-09-19T07:30:55;16.48;;;2.50;;
43150;SDS011;28755;51.478;5.702;2023-09-19T07:33:21;18.77;;;2.97;;
43150;SDS011;28755;51.478;5.702;2023-09-19T07:35:47;16.27;;;3.22;;
43150;SDS011;28755;51.478;5.702;2023-09-19T07:38:13;11.75;;;2.33;;
43150;SDS011;28755;51.478;5.702;2023-09-19T07:40:38;15.13;;;3.00;;
43150;SDS011;28755;51.478;5.702;2023-09-19T07:43:04;17.63;;;2.88;;
43150;SDS011;28755;51.478;5.702;2023-09-19T07:45:31;10.98;;;2.30;;
43150;SDS011;28755;51.478;5.702;2023-09-19T07:47:57;17.00;;;2.78;;
43150;SDS011;28755;51.478;5.702;2023-09-19T07:50:23;15.57;;;2.95;;
43150;SDS011;28755;51.478;5.702;2023-09-19T07:52:49;15.75;;;2.47;;
43150;SDS011;28755;51.478;5.702;2023-09-19T07:55:15;13.65;;;2.95;;
43150;SDS011;28755;51.478;5.702;2023-09-19T07:57:42;12.68;;;2.53;;
43150;SDS011;28755;51.478;5.702;2023-09-19T08:00:09;14.90;;;3.50;;
43150;SDS011;28755;51.478;5.702;2023-09-19T08:02:35;10.70;;;2.90;;
43150;SDS011;28755;51.478;5.702;2023-09-19T08:05:03;15.05;;;2.50;;
43150;SDS011;28755;51.478;5.702;2023-09-19T08:07:31;13.63;;;2.45;;
43150;SDS011;28755;51.478;5.702;2023-09-19T08:10:01;17.02;;;3.22;;
43150;SDS011;28755;51.478;5.702;2023-09-19T08:12:27;17.58;;;3.33;;
43150;SDS011;28755;51.478;5.702;2023-09-19T08:14:55;17.63;;;3.72;;
43150;SDS011;28755;51.478;5.702;2023-09-19T08:17:20;16.75;;;2.75;;
43150;SDS011;28755;51.478;5.702;2023-09-19T08:19:48;17.15;;;2.92;;
43150;SDS011;28755;51.478;5.702;2023-09-19T08:22:14;13.75;;;3.03;;
43150;SDS011;28755;51.478;5.702;2023-09-19T08:24:42;22.17;;;3.33;;
43150;SDS011;28755;51.478;5.702;2023-09-19T08:27:08;17.95;;;2.85;;
43150;SDS011;28755;51.478;5.702;2023-09-19T08:29:35;22.13;;;2.58;;
43150;SDS011;28755;51.478;5.702;2023-09-19T08:32:00;14.52;;;3.13;;
43150;SDS011;28755;51.478;5.702;2023-09-19T08:34:26;12.98;;;2.63;;
43150;SDS011;28755;51.478;5.702;2023-09-19T08:36:55;16.15;;;2.78;;
43150;SDS011;28755;51.478;5.702;2023-09-19T08:39:23;14.40;;;3.05;;
43150;SDS011;28755;51.478;5.702;2023-09-19T08:41:56;22.17;;;4.03;;
43150;SDS011;28755;51.478;5.702;2023-09-19T08:44:23;10.55;;;2.63;;
43150;SDS011;28755;51.478;5.702;2023-09-19T08:46:49;14.63;;;2.75;;
43150;SDS011;28755;51.478;5.702;2023-09-19T08:52:19;14.02;;;2.78;;
43150;SDS011;28755;51.478;5.702;2023-09-19T08:54:48;14.52;;;2.78;;
43150;SDS011;28755;51.478;5.702;2023-09-19T08:57:18;15.60;;;2.95;;
43150;SDS011;28755;51.478;5.702;2023-09-19T08:59:47;15.00;;;3.33;;
43150;SDS011;28755;51.478;5.702;2023-09-19T09:02:15;17.15;;;3.28;;
43150;SDS011;28755;51.478;5.702;2023-09-19T09:04:41;15.95;;;2.80;;
43150;SDS011;28755;51.478;5.702;2023-09-19T09:07:12;14.40;;;2.58;;
43150;SDS011;28755;51.478;5.702;2023-09-19T09:09:38;19.48;;;3.28;;
43150;SDS011;28755;51.478;5.702;2023-09-19T09:12:08;15.20;;;2.93;;
43150;SDS011;28755;51.478;5.702;2023-09-19T09:14:38;14.02;;;2.72;;
43150;SDS011;28755;51.478;5.702;2023-09-19T09:17:13;13.10;;;2.47;;
43150;SDS011;28755;51.478;5.702;2023-09-19T09:19:40;12.65;;;2.72;;
43150;SDS011;28755;51.478;5.702;2023-09-19T09:22:08;11.95;;;2.50;;
43150;SDS011;28755;51.478;5.702;2023-09-19T09:24:35;13.52;;;3.08;;
43150;SDS011;28755;51.478;5.702;2023-09-19T09:27:06;17.40;;;2.63;;
43150;SDS011;28755;51.478;5.702;2023-09-19T09:29:43;14.85;;;2.95;;
43150;SDS011;28755;51.478;5.702;2023-09-19T09:35:02;14.10;;;3.37;;
43150;SDS011;28755;51.478;5.702;2023-09-19T09:37:34;10.90;;;2.60;;
43150;SDS011;28755;51.478;5.702;2023-09-19T09:40:03;13.15;;;2.92;;
43150;SDS011;28755;51.478;5.702;2023-09-19T09:42:41;11.73;;;3.03;;
43150;SDS011;28755;51.478;5.702;2023-09-19T09:45:23;11.43;;;2.53;;
43150;SDS011;28755;51.478;5.702;2023-09-19T09:47:59;11.93;;;3.03;;
43150;SDS011;28755;51.478;5.702;2023-09-19T09:50:34;11.00;;;3.03;;
43150;SDS011;28755;51.478;5.702;2023-09-19T09:53:22;10.80;;;2.35;;
43150;SDS011;28755;51.478;5.702;2023-09-19T09:56:00;12.98;;;2.42;;
43150;SDS011;28755;51.478;5.702;2023-09-19T09:58:34;10.27;;;2.50;;
43150;SDS011;28755;51.478;5.702;2023-09-19T10:01:24;8.77;;;2.33;;
43150;SDS011;28755;51.478;5.702;2023-09-19T10:03:59;9.93;;;2.75;;
43150;SDS011;28755;51.478;5.702;2023-09-19T10:06:25;10.23;;;2.33;;
43150;SDS011;28755;51.478;5.702;2023-09-19T10:14:08;9.95;;;2.65;;
43150;SDS011;28755;51.478;5.702;2023-09-19T10:16:37;13.43;;;2.47;;
43150;SDS011;28755;51.478;5.702;2023-09-19T10:19:10;12.30;;;2.53;;
43150;SDS011;28755;51.478;5.702;2023-09-19T10:21:37;7.47;;;2.20;;
43150;SDS011;28755;51.478;5.702;2023-09-19T10:24:04;10.73;;;2.53;;
43150;SDS011;28755;51.478;5.702;2023-09-19T10:26:34;13.05;;;2.47;;
43150;SDS011;28755;51.478;5.702;2023-09-19T10:29:01;7.88;;;2.42;;
43150;SDS011;28755;51.478;5.702;2023-09-19T10:31:28;8.55;;;2.50;;
43150;SDS011;28755;51.478;5.702;2023-09-19T10:33:58;7.90;;;2.38;;
43150;SDS011;28755;51.478;5.702;2023-09-19T10:36:27;9.27;;;2.50;;
43150;SDS011;28755;51.478;5.702;2023-09-19T10:39:00;11.10;;;2.42;;
43150;SDS011;28755;51.478;5.702;2023-09-19T10:41:32;8.82;;;2.63;;
43150;SDS011;28755;51.478;5.702;2023-09-19T10:44:01;11.85;;;2.08;;
43150;SDS011;28755;51.478;5.702;2023-09-19T10:46:29;11.02;;;2.33;;
43150;SDS011;28755;51.478;5.702;2023-09-19T10:48:58;10.55;;;2.25;;
43150;SDS011;28755;51.478;5.702;2023-09-19T10:51:25;10.43;;;2.40;;
43150;SDS011;28755;51.478;5.702;2023-09-19T10:54:06;11.38;;;2.85;;
43150;SDS011;28755;51.478;5.702;2023-09-19T10:56:38;8.68;;;2.42;;
43150;SDS011;28755;51.478;5.702;2023-09-19T10:59:12;13.88;;;2.88;;
43150;SDS011;28755;51.478;5.702;2023-09-19T11:01:46;13.73;;;2.63;;
43150;SDS011;28755;51.478;5.702;2023-09-19T11:07:04;15.05;;;2.78;;
43150;SDS011;28755;51.478;5.702;2023-09-19T11:09:46;10.38;;;2.30;;
43150;SDS011;28755;51.478;5.702;2023-09-19T11:14:56;13.45;;;2.70;;
43150;SDS011;28755;51.478;5.702;2023-09-19T11:17:29;11.40;;;2.10;;
43150;SDS011;28755;51.478;5.702;2023-09-19T11:30:38;11.20;;;2.13;;
43150;SDS011;28755;51.478;5.702;2023-09-19T11:35:59;7.60;;;1.85;;
43150;SDS011;28755;51.478;5.702;2023-09-19T11:43:46;7.85;;;2.22;;
43150;SDS011;28755;51.478;5.702;2023-09-19T11:46:16;8.63;;;1.90;;
43150;SDS011;28755;51.478;5.702;2023-09-19T11:48:50;9.70;;;2.00;;
43150;SDS011;28755;51.478;5.702;2023-09-19T11:53:56;11.25;;;1.83;;
43150;SDS011;28755;51.478;5.702;2023-09-19T11:56:25;5.88;;;1.80;;
43150;SDS011;28755;51.478;5.702;2023-09-19T11:58:53;7.13;;;1.95;;
43150;SDS011;28755;51.478;5.702;2023-09-19T12:01:24;11.82;;;2.10;;
43150;SDS011;28755;51.478;5.702;2023-09-19T12:03:54;7.30;;;2.00;;
43150;SDS011;28755;51.478;5.702;2023-09-19T12:06:22;5.03;;;1.33;;
43150;SDS011;28755;51.478;5.702;2023-09-19T12:08:52;10.48;;;1.73;;
43150;SDS011;28755;51.478;5.702;2023-09-19T12:11:19;7.82;;;1.40;;
43150;SDS011;28755;51.478;5.702;2023-09-19T12:13:46;6.68;;;1.30;;
43150;SDS011;28755;51.478;5.702;2023-09-19T12:16:14;11.50;;;1.75;;
43150;SDS011;28755;51.478;5.702;2023-09-19T12:18:47;5.88;;;1.30;;
43150;SDS011;28755;51.478;5.702;2023-09-19T12:21:24;8.77;;;1.20;;
43150;SDS011;28755;51.478;5.702;2023-09-19T12:26:40;5.10;;;1.20;;
43150;SDS011;28755;51.478;5.702;2023-09-19T12:29:14;9.63;;;1.70;;
43150;SDS011;28755;51.478;5.702;2023-09-19T12:31:49;4.65;;;1.02;;
43150;SDS011;28755;51.478;5.702;2023-09-19T12:34:20;5.90;;;1.52;;
43150;SDS011;28755;51.478;5.702;2023-09-19T12:36:47;3.92;;;1.10;;
43150;SDS011;28755;51.478;5.702;2023-09-19T12:39:31;7.22;;;1.45;;
43150;SDS011;28755;51.478;5.702;2023-09-19T12:41:57;8.02;;;1.08;;
43150;SDS011;28755;51.478;5.702;2023-09-19T12:44:23;4.43;;;1.10;;
43150;SDS011;28755;51.478;5.702;2023-09-19T12:46:50;9.25;;;1.65;;
43150;SDS011;28755;51.478;5.702;2023-09-19T12:49:18;9.32;;;1.30;;
43150;SDS011;28755;51.478;5.702;2023-09-19T12:51:47;7.43;;;1.20;;
43150;SDS011;28755;51.478;5.702;2023-09-19T12:54:13;7.07;;;1.20;;
43150;SDS011;28755;51.478;5.702;2023-09-19T12:56:41;6.47;;;1.13;;
43150;SDS011;28755;51.478;5.702;2023-09-19T12:59:12;5.15;;;0.90;;
43150;SDS011;28755;51.478;5.702;2023-09-19T13:01:39;7.57;;;1.25;;
43150;SDS011;28755;51.478;5.702;2023-09-19T13:06:59;8.93;;;1.35;;
43150;SDS011;28755;51.478;5.702;2023-09-19T13:09:26;7.57;;;1.60;;
43150;SDS011;28755;51.478;5.702;2023-09-19T13:12:04;3.00;;;1.02;;
43150;SDS011;28755;51.478;5.702;2023-09-19T13:14:31;4.45;;;0.85;;
43150;SDS011;28755;51.478;5.702;2023-09-19T13:17:03;5.03;;;1.05;;
43150;SDS011;28755;51.478;5.702;2023-09-19T13:19:38;5.20;;;0.85;;
43150;SDS011;28755;51.478;5.702;2023-09-19T13:25:10;4.28;;;1.02;;
43150;SDS011;28755;51.478;5.702;2023-09-19T13:27:40;5.40;;;1.00;;
43150;SDS011;28755;51.478;5.702;2023-09-19T13:30:07;6.85;;;1.20;;
43150;SDS011;28755;51.478;5.702;2023-09-19T13:32:33;2.63;;;0.80;;
43150;SDS011;28755;51.478;5.702;2023-09-19T13:34:59;3.50;;;0.75;;
43150;SDS011;28755;51.478;5.702;2023-09-19T13:37:24;6.95;;;1.10;;
43150;SDS011;28755;51.478;5.702;2023-09-19T13:39:51;4.97;;;1.08;;
43150;SDS011;28755;51.478;5.702;2023-09-19T13:42:17;5.18;;;1.08;;
43150;SDS011;28755;51.478;5.702;2023-09-19T13:44:43;3.35;;;0.77;;
43150;SDS011;28755;51.478;5.702;2023-09-19T13:47:09;3.92;;;0.80;;
43150;SDS011;28755;51.478;5.702;2023-09-19T13:49:35;6.10;;;1.10;;
43150;SDS011;28755;51.478;5.702;2023-09-19T13:52:02;5.40;;;0.90;;
43150;SDS011;28755;51.478;5.702;2023-09-19T13:54:32;6.47;;;0.95;;
43150;SDS011;28755;51.478;5.702;2023-09-19T13:56:58;5.88;;;1.00;;
43150;SDS011;28755;51.478;5.702;2023-09-19T13:59:23;4.85;;;0.88;;
43150;SDS011;28755;51.478;5.702;2023-09-19T14:01:49;8.75;;;1.00;;
43150;SDS011;28755;51.478;5.702;2023-09-19T14:04:15;5.40;;;0.90;;
43150;SDS011;28755;51.478;5.702;2023-09-19T14:06:42;4.15;;;0.90;;
43150;SDS011;28755;51.478;5.702;2023-09-19T14:09:08;6.82;;;1.00;;
43150;SDS011;28755;51.478;5.702;2023-09-19T14:11:35;5.78;;;1.10;;
43150;SDS011;28755;51.478;5.702;2023-09-19T14:14:01;4.28;;;0.93;;
43150;SDS011;28755;51.478;5.702;2023-09-19T14:16:26;4.30;;;0.93;;
43150;SDS011;28755;51.478;5.702;2023-09-19T14:18:55;4.63;;;1.13;;
43150;SDS011;28755;51.478;5.702;2023-09-19T14:21:20;7.57;;;1.45;;
43150;SDS011;28755;51.478;5.702;2023-09-19T14:23:46;7.13;;;1.15;;
43150;SDS011;28755;51.478;5.702;2023-09-19T14:26:11;4.93;;;1.05;;
43150;SDS011;28755;51.478;5.702;2023-09-19T14:28:37;5.85;;;1.08;;
43150;SDS011;28755;51.478;5.702;2023-09-19T14:31:10;6.05;;;1.20;;
43150;SDS011;28755;51.478;5.702;2023-09-19T14:33:36;3.00;;;1.00;;
43150;SDS011;28755;51.478;5.702;2023-09-19T14:36:06;5.40;;;1.15;;
43150;SDS011;28755;51.478;5.702;2023-09-19T14:38:34;6.30;;;1.25;;
43150;SDS011;28755;51.478;5.702;2023-09-19T14:41:05;3.70;;;0.95;;
43150;SDS011;28755;51.478;5.702;2023-09-19T14:43:31;5.53;;;0.95;;
43150;SDS011;28755;51.478;5.702;2023-09-19T14:46:02;7.60;;;1.20;;
43150;SDS011;28755;51.478;5.702;2023-09-19T14:48:34;6.85;;;1.30;;
43150;SDS011;28755;51.478;5.702;2023-09-19T14:51:06;5.25;;;1.10;;
43150;SDS011;28755;51.478;5.702;2023-09-19T14:53:35;11.50;;;2.08;;
43150;SDS011;28755;51.478;5.702;2023-09-19T14:56:02;8.85;;;1.55;;
43150;SDS011;28755;51.478;5.702;2023-09-19T14:58:29;6.57;;;1.10;;
43150;SDS011;28755;51.478;5.702;2023-09-19T15:01:11;8.07;;;1.23;;
43150;SDS011;28755;51.478;5.702;2023-09-19T15:03:38;6.63;;;1.08;;
43150;SDS011;28755;51.478;5.702;2023-09-19T15:06:05;5.40;;;1.10;;
43150;SDS011;28755;51.478;5.702;2023-09-19T15:08:32;6.53;;;1.50;;
43150;SDS011;28755;51.478;5.702;2023-09-19T15:11:00;5.07;;;1.00;;
43150;SDS011;28755;51.478;5.702;2023-09-19T15:13:35;6.70;;;1.25;;
43150;SDS011;28755;51.478;5.702;2023-09-19T15:16:02;7.63;;;1.40;;
43150;SDS011;28755;51.478;5.702;2023-09-19T15:18:29;3.75;;;1.30;;
43150;SDS011;28755;51.478;5.702;2023-09-19T15:20:55;7.53;;;1.65;;
43150;SDS011;28755;51.478;5.702;2023-09-19T15:23:31;6.65;;;1.40;;
43150;SDS011;28755;51.478;5.702;2023-09-19T15:26:00;6.05;;;1.35;;
43150;SDS011;28755;51.478;5.702;2023-09-19T15:28:26;5.43;;;1.10;;
43150;SDS011;28755;51.478;5.702;2023-09-19T15:31:00;6.57;;;1.40;;
43150;SDS011;28755;51.478;5.702;2023-09-19T15:33:27;6.35;;;1.30;;
43150;SDS011;28755;51.478;5.702;2023-09-19T15:36:00;9.40;;;1.33;;
43150;SDS011;28755;51.478;5.702;2023-09-19T15:38:30;5.88;;;1.42;;
43150;SDS011;28755;51.478;5.702;2023-09-19T15:40:59;6.70;;;1.23;;
43150;SDS011;28755;51.478;5.702;2023-09-19T15:43:25;9.85;;;1.40;;
43150;SDS011;28755;51.478;5.702;2023-09-19T15:45:50;6.65;;;1.63;;